createdAt,value
2022-12-09T00:02:31.034Z,31.53
2022-12-09T00:07:37.558Z,40.63
2022-12-09T00:12:40.903Z,31.90
2022-12-09T00:17:44.262Z,31.58
2022-12-09T00:22:49.329Z,32.58
2022-12-09T00:27:52.805Z,32.35
2022-12-09T00:32:56.373Z,32.17
2022-12-09T00:38:01.099Z,31.58
2022-12-09T00:43:04.642Z,43.13
2022-12-09T00:48:08.283Z,34.72
2022-12-09T00:53:13.107Z,35.50
2022-12-09T00:58:16.594Z,36.78
2022-12-09T01:03:20.283Z,38.90
2022-12-09T01:08:25.214Z,35.50
2022-12-09T01:13:28.667Z,31.48
2022-12-09T01:18:32.072Z,32.50
2022-12-09T01:23:37.124Z,33.58
2022-12-09T01:28:41.611Z,34.85
2022-12-09T01:33:45.321Z,34.28
2022-12-09T01:38:50.234Z,32.05
2022-12-09T01:44:14.849Z,30.27
2022-12-09T01:49:22.219Z,28.77
2022-12-09T01:54:27.837Z,26.17
2022-12-09T01:59:32.136Z,25.15
2022-12-09T02:04:46.196Z,28.38
2022-12-09T02:10:03.234Z,32.65
2022-12-09T02:15:22.582Z,32.13
2022-12-09T02:20:32.459Z,30.63
2022-12-09T02:25:43.880Z,29.33
2022-12-09T02:30:56.568Z,34.08
2022-12-09T02:36:05.062Z,31.70
2022-12-09T02:41:14.957Z,33.58
2022-12-09T02:46:22.972Z,36.88
2022-12-09T02:51:31.075Z,33.13
2022-12-09T02:56:35.772Z,31.05
2022-12-09T03:01:47.480Z,29.58
2022-12-09T03:06:53.770Z,28.25
2022-12-09T03:12:00.708Z,27.00
2022-12-09T03:17:11.397Z,26.48
2022-12-09T03:22:17.995Z,26.38
2022-12-09T03:27:26.545Z,26.83
2022-12-09T03:32:32.077Z,27.67
2022-12-09T03:37:39.584Z,29.13
2022-12-09T03:42:47.981Z,23.15
2022-12-09T03:47:52.039Z,20.73
2022-12-09T03:53:04.453Z,23.92
2022-12-09T03:58:08.956Z,25.03
2022-12-09T04:03:15.623Z,26.70
2022-12-09T04:08:20.749Z,25.50
2022-12-09T04:13:24.268Z,23.88
2022-12-09T04:18:28.104Z,26.35
2022-12-09T04:23:35.585Z,24.63
2022-12-09T04:28:41.238Z,21.92
2022-12-09T04:33:45.800Z,24.23
2022-12-09T04:38:50.585Z,34.30
2022-12-09T04:43:54.793Z,26.75
2022-12-09T04:48:58.321Z,24.90
2022-12-09T04:54:03.142Z,25.25
2022-12-09T04:59:07.347Z,24.83
2022-12-09T05:04:11.234Z,25.10
2022-12-09T05:09:16.269Z,25.10
2022-12-09T05:14:20.339Z,27.63
2022-12-09T05:19:24.346Z,26.77
2022-12-09T05:24:29.550Z,25.00
2022-12-09T05:29:33.099Z,25.27
2022-12-09T05:34:37.333Z,23.55
2022-12-09T05:39:42.471Z,23.20
2022-12-09T05:44:46.575Z,23.75
2022-12-09T05:49:50.270Z,26.52
2022-12-09T05:54:55.384Z,26.05
2022-12-09T05:59:58.996Z,25.05
2022-12-09T06:05:03.091Z,24.17
2022-12-09T06:10:10.088Z,23.70
2022-12-09T06:15:20.277Z,21.73
2022-12-09T06:20:25.154Z,22.33
2022-12-09T06:25:30.317Z,21.98
2022-12-09T06:30:33.792Z,20.42
2022-12-09T06:35:37.959Z,20.88
2022-12-09T06:40:44.787Z,20.93
2022-12-09T06:45:48.525Z,20.83
2022-12-09T06:50:52.704Z,22.13
2022-12-09T06:55:57.928Z,21.50
2022-12-09T07:01:07.112Z,23.35
2022-12-09T07:06:20.314Z,21.70
2022-12-09T07:11:25.716Z,22.70
2022-12-09T07:16:30.117Z,23.00
2022-12-09T07:21:34.676Z,21.65
2022-12-09T07:26:40.040Z,21.30
2022-12-09T07:31:43.746Z,19.65
2022-12-09T07:36:47.437Z,22.83
2022-12-09T07:41:56.473Z,21.27
2022-12-09T07:47:04.825Z,20.27
2022-12-09T07:52:08.382Z,23.83
2022-12-09T07:57:13.152Z,24.05
2022-12-09T08:02:17.070Z,22.53
2022-12-09T08:07:20.888Z,21.25
2022-12-09T08:12:26.106Z,20.15
2022-12-09T08:17:31.006Z,20.00
2022-12-09T08:22:36.346Z,19.23
2022-12-09T08:27:41.843Z,19.15
2022-12-09T08:32:46.300Z,19.43
2022-12-09T08:37:49.697Z,17.80
2022-12-09T08:42:54.906Z,17.05
2022-12-09T08:47:58.758Z,18.02
2022-12-09T08:53:02.537Z,17.13
2022-12-09T08:58:07.271Z,17.27
2022-12-09T09:03:10.764Z,17.70
2022-12-09T09:08:15.115Z,16.27
2022-12-09T09:13:20.140Z,16.08
2022-12-09T09:18:23.608Z,15.65
2022-12-09T09:23:26.974Z,15.43
2022-12-09T09:28:32.190Z,11.67
2022-12-09T09:33:36.396Z,11.32
2022-12-09T09:38:40.391Z,11.25
2022-12-09T09:43:45.833Z,10.10
2022-12-09T09:48:49.830Z,10.18
2022-12-09T09:53:55.489Z,10.43
2022-12-09T09:59:17.034Z,9.63
2022-12-09T10:04:29.915Z,9.50
2022-12-09T10:09:39.647Z,10.50
2022-12-09T10:14:54.156Z,9.68
2022-12-09T10:20:06.287Z,9.93
2022-12-09T10:25:19.587Z,9.63
2022-12-09T10:30:27.085Z,10.10
2022-12-09T10:35:34.903Z,10.48
2022-12-09T10:40:50.480Z,10.63
2022-12-09T10:46:18.330Z,10.70
2022-12-09T10:51:25.885Z,11.50
2022-12-09T10:56:32.323Z,12.52
2022-12-09T11:01:49.710Z,12.43
2022-12-09T11:06:59.504Z,12.82
2022-12-09T11:12:07.559Z,12.80
2022-12-09T11:17:18.673Z,12.15
2022-12-09T11:27:30.293Z,11.25
2022-12-09T11:32:39.339Z,11.80
2022-12-09T11:37:42.824Z,11.18
2022-12-09T11:42:51.724Z,11.03
2022-12-09T11:53:30.841Z,10.10
2022-12-09T11:58:42.127Z,9.80
2022-12-09T12:03:52.116Z,10.43
2022-12-09T12:09:02.203Z,9.87
2022-12-09T12:14:13.937Z,9.87
2022-12-09T12:19:26.453Z,10.40
2022-12-09T12:25:00.377Z,11.10
2022-12-09T12:30:06.740Z,10.65
2022-12-09T12:35:35.058Z,11.50
2022-12-09T12:40:44.401Z,10.73
2022-12-09T12:46:17.410Z,10.63
2022-12-09T12:51:32.986Z,10.93
2022-12-09T12:56:41.509Z,10.80
2022-12-09T13:01:52.893Z,10.75
2022-12-09T13:07:06.925Z,9.63
2022-12-09T13:12:17.138Z,9.45
2022-12-09T13:17:23.239Z,10.20
2022-12-09T13:22:33.848Z,9.00
2022-12-09T13:27:42.859Z,8.67
2022-12-09T13:33:13.253Z,8.48
2022-12-09T13:38:34.197Z,8.82
2022-12-09T13:43:41.513Z,9.70
2022-12-09T13:48:48.057Z,8.38
2022-12-09T13:54:01.195Z,7.80
2022-12-09T13:59:38.017Z,8.87
2022-12-09T14:04:49.661Z,8.82
2022-12-09T14:09:57.303Z,9.83
2022-12-09T14:15:02.597Z,9.02
2022-12-09T14:20:20.375Z,9.70
2022-12-09T14:26:01.271Z,9.00
2022-12-09T14:31:09.022Z,8.63
2022-12-09T14:36:26.677Z,9.35
2022-12-09T14:41:36.044Z,10.10
2022-12-09T14:46:43.010Z,9.97
2022-12-09T14:51:49.857Z,11.82
2022-12-09T14:56:54.242Z,11.18
2022-12-09T15:02:01.142Z,11.77
2022-12-09T15:07:11.905Z,17.10
2022-12-09T15:12:15.267Z,15.93
2022-12-09T15:17:26.793Z,15.73
2022-12-09T15:22:32.541Z,12.68
2022-12-09T15:27:35.896Z,13.43
2022-12-09T15:32:41.230Z,14.20
2022-12-09T15:37:45.312Z,12.98
2022-12-09T15:42:51.036Z,13.00
2022-12-09T15:48:00.514Z,12.55
2022-12-09T15:53:06.357Z,13.20
2022-12-09T15:58:13.399Z,15.00
2022-12-09T16:03:19.822Z,16.70
2022-12-09T16:08:24.005Z,15.23
2022-12-09T16:13:27.305Z,14.50
2022-12-09T16:18:49.798Z,17.05
2022-12-09T16:23:56.123Z,15.63
2022-12-09T16:29:02.704Z,14.73
2022-12-09T16:34:07.498Z,16.08
2022-12-09T16:39:44.113Z,16.00
2022-12-09T16:44:47.551Z,14.63
2022-12-09T16:49:52.835Z,15.27
2022-12-09T16:54:56.190Z,15.95
2022-12-09T16:59:59.610Z,17.58
2022-12-09T17:05:06.140Z,16.80
2022-12-09T17:10:10.610Z,16.40
2022-12-09T17:15:16.325Z,15.93
2022-12-09T17:20:21.647Z,16.65
2022-12-09T17:25:25.035Z,16.05
2022-12-09T17:30:28.323Z,16.60
2022-12-09T17:35:34.132Z,16.70
2022-12-09T17:40:37.686Z,16.55
2022-12-09T17:45:42.446Z,16.83
2022-12-09T17:50:47.319Z,16.13
2022-12-09T17:55:50.877Z,15.47
2022-12-09T18:00:54.697Z,16.50
2022-12-09T18:06:00.503Z,16.23
2022-12-09T18:11:04.801Z,15.67
2022-12-09T18:16:10.100Z,15.80
2022-12-09T18:21:16.217Z,17.65
2022-12-09T18:26:23.455Z,16.67
2022-12-09T18:31:29.321Z,15.52
2022-12-09T18:36:34.044Z,16.60
2022-12-09T18:41:37.412Z,18.15
2022-12-09T18:46:42.466Z,16.13
2022-12-09T18:51:48.317Z,17.42
2022-12-09T18:56:53.398Z,18.30
2022-12-09T19:01:56.740Z,23.92
2022-12-09T19:07:02.425Z,16.67
2022-12-09T19:12:44.809Z,13.63
2022-12-09T19:17:32.629Z,13.73
2022-12-09T19:22:37.417Z,14.03
2022-12-09T19:32:53.252Z,12.87
2022-12-09T19:38:01.437Z,13.70
2022-12-09T19:43:05.112Z,13.25
2022-12-09T19:48:09.056Z,12.55
2022-12-09T19:53:14.837Z,12.82
2022-12-09T19:58:19.727Z,18.90
2022-12-09T20:03:23.105Z,15.10
2022-12-09T20:08:27.911Z,18.20
2022-12-09T20:13:32.179Z,15.70
2022-12-09T20:18:36.025Z,15.95
2022-12-09T20:23:44.847Z,18.33
2022-12-09T20:28:50.012Z,18.88
2022-12-09T20:33:55.486Z,18.27
2022-12-09T20:39:11.362Z,20.13
2022-12-09T20:44:16.272Z,17.85
2022-12-09T20:49:25.437Z,20.35
2022-12-09T20:54:30.372Z,19.17
2022-12-09T20:59:33.904Z,18.55
2022-12-09T21:04:37.259Z,16.40
2022-12-09T21:09:42.013Z,16.83
2022-12-09T21:14:45.983Z,16.77
2022-12-09T21:19:49.335Z,16.98
2022-12-09T21:24:54.331Z,19.23
2022-12-09T21:29:57.898Z,18.65
2022-12-09T21:35:02.226Z,19.97
2022-12-09T21:40:08.090Z,38.37
2022-12-09T21:45:11.702Z,21.50
2022-12-09T21:50:15.084Z,19.85
2022-12-09T21:55:20.343Z,18.00
2022-12-09T22:00:24.487Z,18.42
2022-12-09T22:05:28.020Z,18.63
2022-12-09T22:10:32.860Z,17.27
2022-12-09T22:15:37.671Z,17.63
2022-12-09T22:26:07.755Z,18.50
2022-12-09T22:31:11.532Z,17.38
2022-12-09T22:36:15.763Z,17.00
2022-12-09T22:41:22.429Z,16.03
2022-12-09T22:46:27.887Z,17.27
2022-12-09T22:51:33.405Z,16.67
2022-12-09T22:56:39.628Z,17.75
2022-12-09T23:01:45.508Z,19.75
2022-12-09T23:06:50.138Z,18.73
2022-12-09T23:11:55.223Z,19.33
2022-12-09T23:16:59.730Z,18.33
2022-12-09T23:22:03.544Z,18.33
2022-12-09T23:27:08.299Z,19.30
2022-12-09T23:32:11.823Z,17.80
2022-12-09T23:37:15.451Z,18.70
2022-12-09T23:42:21.597Z,18.03
2022-12-09T23:47:25.041Z,17.02
2022-12-09T23:52:28.480Z,18.60
2022-12-09T23:57:33.292Z,19.05
